This is the latest recevied weather packets stored in our database for station/object W9LRT-WX. If no packets are shown the sender has not sent any weather packets the latest 10 day(s).
| Time | Temp. | Humidity | Pressure | Rain* | Wind** | Luminosity | Snow |
|---|---|---|---|---|---|---|---|
| 1777952171 | 13.89° C | 91% | 1002 hPa | 1.27 mm | - | 0 W/m² | - |
| 1777951266 | 14.44° C | 90% | 1001.9 hPa | 2.03 mm | - | 0 W/m² | - |
| 1777950389 | 14.44° C | 90% | 1001.6 hPa | 1.78 mm | - | 0 W/m² | - |
| 1777949466 | 14.44° C | 89% | 1001.5 hPa | 1.52 mm | - | 0 W/m² | - |
| 1777948565 | 15° C | 84% | 1001.9 hPa | 1.02 mm | - | 0 W/m² | - |
| 1777947666 | 21.67° C | 59% | 1001.6 hPa | 0 mm | - | 0 W/m² | - |
| 1777946766 | 21.11° C | 60% | 999.7 hPa | 0 mm | - | 0 W/m² | - |
| 1777945866 | 21.11° C | 60% | 999.4 hPa | 0 mm | - | 0 W/m² | - |
| 1777944965 | 21.11° C | 58% | 999.3 hPa | 0 mm | - | 0 W/m² | - |
| 1777944065 | 21.67° C | 56% | 999.2 hPa | 0 mm | - | 0 W/m² | - |
| 1777943162 | 22.22° C | 54% | 999.2 hPa | 0 mm | - | 0 W/m² | - |
| 1777942263 | 22.22° C | 54% | 998.9 hPa | 0 mm | - | 0 W/m² | - |
| 1777941360 | 22.22° C | 53% | 998.9 hPa | 0 mm | - | 0 W/m² | - |
| 1777940455 | 22.22° C | 55% | 999 hPa | 0 mm | - | 5 W/m² | - |
| 1777939556 | 22.22° C | 59% | 999.1 hPa | 0 mm | - | 12 W/m² | - |
| 1777938655 | 22.22° C | 59% | 999.1 hPa | 0 mm | - | 25 W/m² | - |
| 1777937755 | 22.22° C | 59% | 998.9 hPa | 0 mm | - | 42 W/m² | - |
| 1777936855 | 21.67° C | 61% | 998.8 hPa | 0 mm | - | 47 W/m² | - |
| 1777935955 | 22.22° C | 60% | 998.9 hPa | 0 mm | - | 33 W/m² | - |
| 1777935056 | 22.78° C | 59% | 999.2 hPa | 0 mm | - | 251 W/m² | - |
| 1777934154 | 22.78° C | 58% | 999.3 hPa | 0 mm | - | 329 W/m² | - |
| 1777933255 | 23.33° C | 53% | 999.2 hPa | 0 mm | - | 352 W/m² | - |
| 1777932355 | 23.33° C | 51% | 999.4 hPa | 0 mm | - | 385 W/m² | - |
| 1777931456 | 23.89° C | 51% | 999.4 hPa | 0 mm | - | 471 W/m² | - |
| 1777930556 | 24.44° C | 48% | 999.3 hPa | 0 mm | - | 499 W/m² | - |
* Rain latest hour (hover to see other rain measurements)
** Current wind speed in m/s (hover to see current wind gust speed)